PWSweather.com
Personal Weather Stations
Station Observations
WAIROAHB
Wairoa, Northern Hawkes Bay -NZ 4108

WairoaNorthern Hawkes Bay -NZ 4108

Lat: -39.04516934, Lon: 177.4263989

Elevation: 156

Station Type: WS3083

http://wairoa.net/weather/index.htm

High Low Average
Temperature 72.7°F22.6°C 60.3°F15.7°C 64.8°F18.2°C
Dew Point 62.8°F17.1°C 58.2°F14.6°C 60.4°F15.8°C
Winds 13.6 mph 21.9 kmh Calm Calm 3.0 mph SE4.8 kmh SE
Wind Gusts 19.7 mph31.7 kmh -- 6.0 mph9.7 kmh
Humidity 99% 62% 86%
Pressure 30.33 in1027.1 mb 30.19 in1022.4 mb -
Precipitation 0.00 in0.0 mm - -
Hour Temp Dew Point Humidity Winds Wind Gusts Pressure Precip Precip Rate Daily Precip Total
12:00 AM 61.2°F16.2°C 60.6°F15.9°C 98% Calm Calm -- 30.21 in1023.0 mb 0.00 in0.0 mm 0.00 in0.0 mm 0.00 in0.0 mm
12:10 AM 61.2°F16.2°C 60.6°F15.9°C 98% Calm Calm -- 30.21 in1023.0 mb 0.00 in0.0 mm 0.00 in0.0 mm 0.00 in0.0 mm
12:20 AM 61.2°F16.2°C 60.6°F15.9°C 98% Calm Calm -- 30.21 in1023.0 mb 0.00 in0.0 mm 0.00 in0.0 mm 0.00 in0.0 mm
12:30 AM 61.0°F16.1°C 60.4°F15.8°C 98% Calm Calm -- 30.21 in1023.0 mb 0.00 in0.0 mm 0.00 in0.0 mm 0.00 in0.0 mm
12:40 AM 60.8°F16.0°C 60.2°F15.7°C 98% Calm Calm -- 30.21 in1023.0 mb 0.00 in0.0 mm 0.00 in0.0 mm 0.00 in0.0 mm
12:50 AM 60.6°F15.9°C 60.4°F15.8°C 99% Calm Calm -- 30.20 in1022.7 mb 0.00 in0.0 mm 0.00 in0.0 mm 0.00 in0.0 mm
01:00 AM 60.6°F15.9°C 60.4°F15.8°C 99% Calm Calm -- 30.20 in1022.7 mb 0.00 in0.0 mm 0.00 in0.0 mm 0.00 in0.0 mm
01:10 AM 60.6°F15.9°C 60.4°F15.8°C 99% Calm Calm -- 30.20 in1022.7 mb 0.00 in0.0 mm 0.00 in0.0 mm 0.00 in0.0 mm
01:20 AM 60.6°F15.9°C 60.4°F15.8°C 99% Calm Calm -- 30.20 in1022.7 mb 0.00 in0.0 mm 0.00 in0.0 mm 0.00 in0.0 mm
01:30 AM 60.4°F15.8°C 60.2°F15.7°C 99% Calm Calm -- 30.19 in1022.4 mb 0.00 in0.0 mm 0.00 in0.0 mm 0.00 in0.0 mm
01:40 AM 60.6°F15.9°C 60.4°F15.8°C 99% Calm Calm -- 30.19 in1022.4 mb 0.00 in0.0 mm 0.00 in0.0 mm 0.00 in0.0 mm
01:50 AM 60.4°F15.8°C 60.2°F15.7°C 99% Calm Calm -- 30.19 in1022.4 mb 0.00 in0.0 mm 0.00 in0.0 mm 0.00 in0.0 mm
02:00 AM 60.4°F15.8°C 60.2°F15.7°C 99% Calm Calm -- 30.19 in1022.4 mb 0.00 in0.0 mm 0.00 in0.0 mm 0.00 in0.0 mm
02:10 AM 60.4°F15.8°C 60.2°F15.7°C 99% Calm Calm -- 30.19 in1022.4 mb 0.00 in0.0 mm 0.00 in0.0 mm 0.00 in0.0 mm
02:20 AM 61.3°F16.3°C 60.8°F16.0°C 98% Calm Calm 6.0 mph9.7 kmh 30.19 in1022.4 mb 0.00 in0.0 mm 0.00 in0.0 mm 0.00 in0.0 mm
02:30 AM 60.6°F15.9°C 60.4°F15.8°C 99% Calm Calm -- 30.20 in1022.7 mb 0.00 in0.0 mm 0.00 in0.0 mm 0.00 in0.0 mm
02:40 AM 60.4°F15.8°C 60.2°F15.7°C 99% Calm Calm -- 30.19 in1022.4 mb 0.00 in0.0 mm 0.00 in0.0 mm 0.00 in0.0 mm
02:50 AM 60.4°F15.8°C 60.2°F15.7°C 99% 2.2 mph WNW3.5 kmh WNW 6.9 mph11.1 kmh 30.19 in1022.4 mb 0.00 in0.0 mm 0.00 in0.0 mm 0.00 in0.0 mm
03:00 AM 60.3°F15.7°C 60.0°F15.6°C 99% 2.2 mph NW3.5 kmh NW 6.0 mph9.7 kmh 30.19 in1022.4 mb 0.00 in0.0 mm 0.00 in0.0 mm 0.00 in0.0 mm
03:10 AM 60.3°F15.7°C 60.0°F15.6°C 99% Calm Calm 4.5 mph7.2 kmh 30.20 in1022.7 mb 0.00 in0.0 mm 0.00 in0.0 mm 0.00 in0.0 mm
03:20 AM 60.3°F15.7°C 60.0°F15.6°C 99% Calm Calm -- 30.20 in1022.7 mb 0.00 in0.0 mm 0.00 in0.0 mm 0.00 in0.0 mm
03:30 AM 60.4°F15.8°C 60.2°F15.7°C 99% Calm Calm -- 30.20 in1022.7 mb 0.00 in0.0 mm 0.00 in0.0 mm 0.00 in0.0 mm
03:40 AM 60.3°F15.7°C 60.0°F15.6°C 99% Calm Calm -- 30.20 in1022.7 mb 0.00 in0.0 mm 0.00 in0.0 mm 0.00 in0.0 mm
03:50 AM 60.3°F15.7°C 60.0°F15.6°C 99% Calm Calm -- 30.20 in1022.7 mb 0.00 in0.0 mm 0.00 in0.0 mm 0.00 in0.0 mm
04:00 AM 60.3°F15.7°C 60.0°F15.6°C 99% Calm Calm -- 30.21 in1023.0 mb 0.00 in0.0 mm 0.00 in0.0 mm 0.00 in0.0 mm
04:10 AM 60.3°F15.7°C 60.0°F15.6°C 99% Calm Calm -- 30.21 in1023.0 mb 0.00 in0.0 mm 0.00 in0.0 mm 0.00 in0.0 mm
04:20 AM 60.3°F15.7°C 60.0°F15.6°C 99% Calm Calm -- 30.22 in1023.4 mb 0.00 in0.0 mm 0.00 in0.0 mm 0.00 in0.0 mm
04:30 AM 60.3°F15.7°C 60.0°F15.6°C 99% Calm Calm -- 30.22 in1023.4 mb 0.00 in0.0 mm 0.00 in0.0 mm 0.00 in0.0 mm
04:40 AM 60.3°F15.7°C 60.0°F15.6°C 99% Calm Calm -- 30.22 in1023.4 mb 0.00 in0.0 mm 0.00 in0.0 mm 0.00 in0.0 mm
04:50 AM 60.3°F15.7°C 60.0°F15.6°C 99% Calm Calm -- 30.22 in1023.4 mb 0.00 in0.0 mm 0.00 in0.0 mm 0.00 in0.0 mm
05:00 AM 60.3°F15.7°C 60.0°F15.6°C 99% Calm Calm 2.2 mph3.5 kmh 30.22 in1023.4 mb 0.00 in0.0 mm 0.00 in0.0 mm 0.00 in0.0 mm
05:10 AM 60.3°F15.7°C 60.0°F15.6°C 99% Calm Calm 3.1 mph5.0 kmh 30.22 in1023.4 mb 0.00 in0.0 mm 0.00 in0.0 mm 0.00 in0.0 mm
05:20 AM 60.3°F15.7°C 60.0°F15.6°C 99% Calm Calm -- 30.23 in1023.7 mb 0.00 in0.0 mm 0.00 in0.0 mm 0.00 in0.0 mm
05:30 AM 60.3°F15.7°C 60.0°F15.6°C 99% Calm Calm -- 30.23 in1023.7 mb 0.00 in0.0 mm 0.00 in0.0 mm 0.00 in0.0 mm
05:40 AM 60.4°F15.8°C 60.2°F15.7°C 99% 3.1 mph NW5.0 kmh NW 3.8 mph6.1 kmh 30.23 in1023.7 mb 0.00 in0.0 mm 0.00 in0.0 mm 0.00 in0.0 mm
05:50 AM 60.6°F15.9°C 60.4°F15.8°C 99% Calm Calm 3.8 mph6.1 kmh 30.24 in1024.0 mb 0.00 in0.0 mm 0.00 in0.0 mm 0.00 in0.0 mm
06:00 AM 60.8°F16.0°C 60.2°F15.7°C 98% Calm Calm -- 30.24 in1024.0 mb 0.00 in0.0 mm 0.00 in0.0 mm 0.00 in0.0 mm
06:10 AM 61.2°F16.2°C 60.6°F15.9°C 98% Calm Calm -- 30.24 in1024.0 mb 0.00 in0.0 mm 0.00 in0.0 mm 0.00 in0.0 mm
06:20 AM 61.7°F16.5°C 61.1°F16.2°C 98% Calm Calm 0.7 mph1.1 kmh 30.25 in1024.4 mb 0.00 in0.0 mm 0.00 in0.0 mm 0.00 in0.0 mm
06:30 AM 61.7°F16.5°C 61.1°F16.2°C 98% Calm Calm 6.9 mph11.1 kmh 30.25 in1024.4 mb 0.00 in0.0 mm 0.00 in0.0 mm 0.00 in0.0 mm
06:40 AM 62.2°F16.8°C 61.7°F16.5°C 98% 2.2 mph SW3.5 kmh SW 9.2 mph14.8 kmh 30.26 in1024.7 mb 0.00 in0.0 mm 0.00 in0.0 mm 0.00 in0.0 mm
06:50 AM 63.0°F17.2°C 62.1°F16.7°C 97% 3.1 mph SW5.0 kmh SW 8.3 mph13.4 kmh 30.26 in1024.7 mb 0.00 in0.0 mm 0.00 in0.0 mm 0.00 in0.0 mm
07:00 AM 63.1°F17.3°C 61.4°F16.3°C 94% 5.4 mph SW8.7 kmh SW 8.3 mph13.4 kmh 30.26 in1024.7 mb 0.00 in0.0 mm 0.00 in0.0 mm 0.00 in0.0 mm
07:10 AM 63.5°F17.5°C 61.2°F16.2°C 92% 3.1 mph SW5.0 kmh SW 9.8 mph15.8 kmh 30.26 in1024.7 mb 0.00 in0.0 mm 0.00 in0.0 mm 0.00 in0.0 mm
07:20 AM 64.2°F17.9°C 61.2°F16.2°C 90% 4.5 mph SW7.2 kmh SW 11.4 mph18.3 kmh 30.27 in1025.1 mb 0.00 in0.0 mm 0.00 in0.0 mm 0.00 in0.0 mm
07:30 AM 64.4°F18.0°C 61.1°F16.2°C 89% 4.5 mph WSW7.2 kmh WSW 10.7 mph17.2 kmh 30.27 in1025.1 mb 0.00 in0.0 mm 0.00 in0.0 mm 0.00 in0.0 mm
07:40 AM 64.9°F18.3°C 61.3°F16.3°C 88% 6.9 mph WSW11.1 kmh WSW 9.2 mph14.8 kmh 30.28 in1025.4 mb 0.00 in0.0 mm 0.00 in0.0 mm 0.00 in0.0 mm
07:50 AM 64.4°F18.0°C 60.8°F16.0°C 88% 2.2 mph WSW3.5 kmh WSW 10.7 mph17.2 kmh 30.28 in1025.4 mb 0.00 in0.0 mm 0.00 in0.0 mm 0.00 in0.0 mm
08:00 AM 64.4°F18.0°C 60.8°F16.0°C 88% 6.9 mph WSW11.1 kmh WSW 10.7 mph17.2 kmh 30.28 in1025.4 mb 0.00 in0.0 mm 0.00 in0.0 mm 0.00 in0.0 mm
08:10 AM 64.4°F18.0°C 61.4°F16.3°C 90% 7.6 mph SW12.2 kmh SW 10.7 mph17.2 kmh 30.29 in1025.7 mb 0.00 in0.0 mm 0.00 in0.0 mm 0.00 in0.0 mm
08:20 AM 64.4°F18.0°C 61.4°F16.3°C 90% 7.6 mph WSW12.2 kmh WSW 11.4 mph18.3 kmh 30.29 in1025.7 mb 0.00 in0.0 mm 0.00 in0.0 mm 0.00 in0.0 mm
08:30 AM 64.8°F18.2°C 61.1°F16.2°C 88% 6.0 mph WSW9.7 kmh WSW 10.7 mph17.2 kmh 30.29 in1025.7 mb 0.00 in0.0 mm 0.00 in0.0 mm 0.00 in0.0 mm
08:40 AM 65.3°F18.5°C 61.4°F16.3°C 87% 5.4 mph SW8.7 kmh SW 11.4 mph18.3 kmh 30.29 in1025.7 mb 0.00 in0.0 mm 0.00 in0.0 mm 0.00 in0.0 mm
08:50 AM 65.7°F18.7°C 61.4°F16.3°C 86% 6.0 mph WSW9.7 kmh WSW 11.4 mph18.3 kmh 30.30 in1026.1 mb 0.00 in0.0 mm 0.00 in0.0 mm 0.00 in0.0 mm
09:00 AM 65.7°F18.7°C 61.4°F16.3°C 86% 4.5 mph SW7.2 kmh SW 9.8 mph15.8 kmh 30.29 in1025.7 mb 0.00 in0.0 mm 0.00 in0.0 mm 0.00 in0.0 mm
09:10 AM 66.0°F18.9°C 61.7°F16.5°C 86% 5.4 mph WSW8.7 kmh WSW 10.7 mph17.2 kmh 30.29 in1025.7 mb 0.00 in0.0 mm 0.00 in0.0 mm 0.00 in0.0 mm
09:20 AM 66.4°F19.1°C 61.4°F16.3°C 84% 7.6 mph WSW12.2 kmh WSW 11.4 mph18.3 kmh 30.30 in1026.1 mb 0.00 in0.0 mm 0.00 in0.0 mm 0.00 in0.0 mm
09:30 AM 66.7°F19.3°C 62.1°F16.7°C 85% 7.6 mph SW12.2 kmh SW 12.1 mph19.5 kmh 30.30 in1026.1 mb 0.00 in0.0 mm 0.00 in0.0 mm 0.00 in0.0 mm
09:40 AM 66.9°F19.4°C 62.3°F16.8°C 85% 3.8 mph SW6.1 kmh SW 12.1 mph19.5 kmh 30.30 in1026.1 mb 0.00 in0.0 mm 0.00 in0.0 mm 0.00 in0.0 mm
09:50 AM 65.7°F18.7°C 62.4°F16.9°C 89% 6.0 mph SW9.7 kmh SW 13.0 mph20.9 kmh 30.30 in1026.1 mb 0.00 in0.0 mm 0.00 in0.0 mm 0.00 in0.0 mm
10:00 AM 65.8°F18.8°C 62.8°F17.1°C 90% 9.2 mph SW14.8 kmh SW 14.5 mph23.3 kmh 30.31 in1026.4 mb 0.00 in0.0 mm 0.00 in0.0 mm 0.00 in0.0 mm
10:10 AM 66.4°F19.1°C 62.4°F16.9°C 87% 9.2 mph SW14.8 kmh SW 13.6 mph21.9 kmh 30.30 in1026.1 mb 0.00 in0.0 mm 0.00 in0.0 mm 0.00 in0.0 mm
10:20 AM 66.6°F19.2°C 62.6°F17.0°C 87% 13.0 mph WSW20.9 kmh WSW 16.8 mph27.0 kmh 30.31 in1026.4 mb 0.00 in0.0 mm 0.00 in0.0 mm 0.00 in0.0 mm
10:30 AM 66.9°F19.4°C 62.6°F17.0°C 86% 9.8 mph WSW15.8 kmh WSW 16.8 mph27.0 kmh 30.31 in1026.4 mb 0.00 in0.0 mm 0.00 in0.0 mm 0.00 in0.0 mm
10:40 AM 66.7°F19.3°C 62.8°F17.1°C 87% 9.2 mph SW14.8 kmh SW 17.4 mph28.0 kmh 30.31 in1026.4 mb 0.00 in0.0 mm 0.00 in0.0 mm 0.00 in0.0 mm
10:50 AM 65.5°F18.6°C 61.9°F16.6°C 88% 13.6 mph W21.9 kmh W 19.7 mph31.7 kmh 30.31 in1026.4 mb 0.00 in0.0 mm 0.00 in0.0 mm 0.00 in0.0 mm
11:00 AM 65.1°F18.4°C 61.8°F16.6°C 89% 13.0 mph WNW20.9 kmh WNW 18.3 mph29.5 kmh 30.31 in1026.4 mb 0.00 in0.0 mm 0.00 in0.0 mm 0.00 in0.0 mm
11:10 AM 64.4°F18.0°C 61.1°F16.2°C 89% 11.4 mph W18.3 kmh W 19.7 mph31.7 kmh 30.31 in1026.4 mb 0.00 in0.0 mm 0.00 in0.0 mm 0.00 in0.0 mm
11:20 AM 63.5°F17.5°C 61.2°F16.2°C 92% 5.4 mph SW8.7 kmh SW 17.4 mph28.0 kmh 30.31 in1026.4 mb 0.00 in0.0 mm 0.00 in0.0 mm 0.00 in0.0 mm
11:30 AM 63.9°F17.7°C 61.8°F16.6°C 93% 3.8 mph WSW6.1 kmh WSW 7.6 mph12.2 kmh 30.31 in1026.4 mb 0.00 in0.0 mm 0.00 in0.0 mm 0.00 in0.0 mm
11:40 AM 64.4°F18.0°C 61.7°F16.5°C 91% 5.4 mph SW8.7 kmh SW 9.8 mph15.8 kmh 30.31 in1026.4 mb 0.00 in0.0 mm 0.00 in0.0 mm 0.00 in0.0 mm
11:50 AM 66.4°F19.1°C 62.1°F16.7°C 86% 3.1 mph W5.0 kmh W 7.6 mph12.2 kmh 30.31 in1026.4 mb 0.00 in0.0 mm 0.00 in0.0 mm 0.00 in0.0 mm
12:00 PM 68.4°F20.2°C 60.9°F16.1°C 77% 5.4 mph NW8.7 kmh NW 12.1 mph19.5 kmh 30.31 in1026.4 mb 0.00 in0.0 mm 0.00 in0.0 mm 0.00 in0.0 mm
12:10 PM 69.3°F20.7°C 61.0°F16.1°C 75% 7.6 mph WSW12.2 kmh WSW 12.1 mph19.5 kmh 30.30 in1026.1 mb 0.00 in0.0 mm 0.00 in0.0 mm 0.00 in0.0 mm
12:20 PM 69.3°F20.7°C 60.6°F15.9°C 74% 3.1 mph WNW5.0 kmh WNW 12.1 mph19.5 kmh 30.30 in1026.1 mb 0.00 in0.0 mm 0.00 in0.0 mm 0.00 in0.0 mm
12:30 PM 70.7°F21.5°C 61.6°F16.4°C 73% Calm Calm 9.8 mph15.8 kmh 30.30 in1026.1 mb 0.00 in0.0 mm 0.00 in0.0 mm 0.00 in0.0 mm
12:40 PM 70.5°F21.4°C 61.5°F16.4°C 73% 2.2 mph S3.5 kmh S 8.3 mph13.4 kmh 30.30 in1026.1 mb 0.00 in0.0 mm 0.00 in0.0 mm 0.00 in0.0 mm
12:50 PM 70.7°F21.5°C 62.0°F16.7°C 74% Calm Calm 9.2 mph14.8 kmh 30.30 in1026.1 mb 0.00 in0.0 mm 0.00 in0.0 mm 0.00 in0.0 mm
01:00 PM 69.6°F20.9°C 61.0°F16.1°C 74% 0.7 mph S1.1 kmh S 8.3 mph13.4 kmh 30.29 in1025.7 mb 0.00 in0.0 mm 0.00 in0.0 mm 0.00 in0.0 mm
01:10 PM 70.5°F21.4°C 61.9°F16.6°C 74% 3.1 mph SW5.0 kmh SW 9.2 mph14.8 kmh 30.30 in1026.1 mb 0.00 in0.0 mm 0.00 in0.0 mm 0.00 in0.0 mm
01:20 PM 71.2°F21.8°C 62.2°F16.8°C 73% Calm Calm 6.9 mph11.1 kmh 30.30 in1026.1 mb 0.00 in0.0 mm 0.00 in0.0 mm 0.00 in0.0 mm
01:30 PM 70.2°F21.2°C 61.1°F16.2°C 73% 5.4 mph SW8.7 kmh SW 9.2 mph14.8 kmh 30.30 in1026.1 mb 0.00 in0.0 mm 0.00 in0.0 mm 0.00 in0.0 mm
01:40 PM 70.2°F21.2°C 60.3°F15.7°C 71% 5.4 mph S8.7 kmh S 9.2 mph14.8 kmh 30.30 in1026.1 mb 0.00 in0.0 mm 0.00 in0.0 mm 0.00 in0.0 mm
01:50 PM 70.0°F21.1°C 61.3°F16.3°C 74% Calm Calm 9.2 mph14.8 kmh 30.30 in1026.1 mb 0.00 in0.0 mm 0.00 in0.0 mm 0.00 in0.0 mm
02:00 PM 70.7°F21.5°C 61.3°F16.3°C 72% 4.5 mph NNW7.2 kmh NNW 9.8 mph15.8 kmh 30.29 in1025.7 mb 0.00 in0.0 mm 0.00 in0.0 mm 0.00 in0.0 mm
02:10 PM 70.5°F21.4°C 61.5°F16.4°C 73% 1.6 mph SSE2.6 kmh SSE 9.2 mph14.8 kmh 30.30 in1026.1 mb 0.00 in0.0 mm 0.00 in0.0 mm 0.00 in0.0 mm
02:20 PM 70.9°F21.6°C 60.6°F15.9°C 70% 3.1 mph WSW5.0 kmh WSW 8.3 mph13.4 kmh 30.29 in1025.7 mb 0.00 in0.0 mm 0.00 in0.0 mm 0.00 in0.0 mm
02:30 PM 71.8°F22.1°C 61.5°F16.4°C 70% 0.7 mph ESE1.1 kmh ESE 7.6 mph12.2 kmh 30.29 in1025.7 mb 0.00 in0.0 mm 0.00 in0.0 mm 0.00 in0.0 mm
02:40 PM 71.4°F21.9°C 60.3°F15.7°C 68% Calm Calm 10.7 mph17.2 kmh 30.28 in1025.4 mb 0.00 in0.0 mm 0.00 in0.0 mm 0.00 in0.0 mm
02:50 PM 71.1°F21.7°C 60.4°F15.8°C 69% Calm Calm 7.6 mph12.2 kmh 30.29 in1025.7 mb 0.00 in0.0 mm 0.00 in0.0 mm 0.00 in0.0 mm
03:00 PM 71.6°F22.0°C 60.9°F16.1°C 69% 0.7 mph SE1.1 kmh SE 8.3 mph13.4 kmh 30.29 in1025.7 mb 0.00 in0.0 mm 0.00 in0.0 mm 0.00 in0.0 mm
03:10 PM 71.6°F22.0°C 59.7°F15.4°C 66% 0.7 mph SE1.1 kmh SE 6.0 mph9.7 kmh 30.28 in1025.4 mb 0.00 in0.0 mm 0.00 in0.0 mm 0.00 in0.0 mm
03:20 PM 71.8°F22.1°C 58.5°F14.7°C 63% 2.2 mph SE3.5 kmh SE 6.9 mph11.1 kmh 30.28 in1025.4 mb 0.00 in0.0 mm 0.00 in0.0 mm 0.00 in0.0 mm
03:30 PM 72.7°F22.6°C 58.9°F14.9°C 62% 4.5 mph SE7.2 kmh SE 6.0 mph9.7 kmh 30.27 in1025.1 mb 0.00 in0.0 mm 0.00 in0.0 mm 0.00 in0.0 mm
03:40 PM 72.5°F22.5°C 58.8°F14.9°C 62% Calm Calm 7.6 mph12.2 kmh 30.27 in1025.1 mb 0.00 in0.0 mm 0.00 in0.0 mm 0.00 in0.0 mm
03:50 PM 72.5°F22.5°C 60.1°F15.6°C 65% Calm Calm 9.2 mph14.8 kmh 30.27 in1025.1 mb 0.00 in0.0 mm 0.00 in0.0 mm 0.00 in0.0 mm
04:00 PM 72.0°F22.2°C 60.0°F15.6°C 66% 5.4 mph SE8.7 kmh SE 9.8 mph15.8 kmh 30.28 in1025.4 mb 0.00 in0.0 mm 0.00 in0.0 mm 0.00 in0.0 mm
04:10 PM 72.0°F22.2°C 60.9°F16.1°C 68% 3.8 mph SE6.1 kmh SE 8.3 mph13.4 kmh 30.28 in1025.4 mb 0.00 in0.0 mm 0.00 in0.0 mm 0.00 in0.0 mm
04:20 PM 72.5°F22.5°C 59.7°F15.4°C 64% 3.1 mph E5.0 kmh E 8.3 mph13.4 kmh 30.27 in1025.1 mb 0.00 in0.0 mm 0.00 in0.0 mm 0.00 in0.0 mm
04:30 PM 70.2°F21.2°C 61.1°F16.2°C 73% 4.5 mph NNW7.2 kmh NNW 11.4 mph18.3 kmh 30.27 in1025.1 mb 0.00 in0.0 mm 0.00 in0.0 mm 0.00 in0.0 mm
04:40 PM 70.0°F21.1°C 61.0°F16.1°C 73% 4.5 mph SW7.2 kmh SW 9.2 mph14.8 kmh 30.27 in1025.1 mb 0.00 in0.0 mm 0.00 in0.0 mm 0.00 in0.0 mm
04:50 PM 69.6°F20.9°C 61.0°F16.1°C 74% 4.5 mph SE7.2 kmh SE 11.4 mph18.3 kmh 30.27 in1025.1 mb 0.00 in0.0 mm 0.00 in0.0 mm 0.00 in0.0 mm
05:00 PM 70.5°F21.4°C 61.1°F16.2°C 72% 3.8 mph SE6.1 kmh SE 9.2 mph14.8 kmh 30.27 in1025.1 mb 0.00 in0.0 mm 0.00 in0.0 mm 0.00 in0.0 mm
05:10 PM 69.4°F20.8°C 60.8°F16.0°C 74% 6.9 mph SE11.1 kmh SE 9.2 mph14.8 kmh 30.27 in1025.1 mb 0.00 in0.0 mm 0.00 in0.0 mm 0.00 in0.0 mm
05:20 PM 68.0°F20.0°C 60.2°F15.7°C 76% 6.0 mph S9.7 kmh S 9.2 mph14.8 kmh 30.27 in1025.1 mb 0.00 in0.0 mm 0.00 in0.0 mm 0.00 in0.0 mm
05:30 PM 66.4°F19.1°C 59.7°F15.4°C 79% 6.9 mph S11.1 kmh S 9.2 mph14.8 kmh 30.27 in1025.1 mb 0.00 in0.0 mm 0.00 in0.0 mm 0.00 in0.0 mm
05:40 PM 66.6°F19.2°C 60.6°F15.9°C 81% 3.1 mph SE5.0 kmh SE 9.2 mph14.8 kmh 30.28 in1025.4 mb 0.00 in0.0 mm 0.00 in0.0 mm 0.00 in0.0 mm
05:50 PM 66.0°F18.9°C 60.4°F15.8°C 82% 4.5 mph SW7.2 kmh SW 10.7 mph17.2 kmh 30.28 in1025.4 mb 0.00 in0.0 mm 0.00 in0.0 mm 0.00 in0.0 mm
06:00 PM 65.7°F18.7°C 60.4°F15.8°C 83% 4.5 mph SE7.2 kmh SE 7.6 mph12.2 kmh 30.28 in1025.4 mb 0.00 in0.0 mm 0.00 in0.0 mm 0.00 in0.0 mm
06:10 PM 65.3°F18.5°C 60.4°F15.8°C 84% 6.0 mph N9.7 kmh N 9.2 mph14.8 kmh 30.29 in1025.7 mb 0.00 in0.0 mm 0.00 in0.0 mm 0.00 in0.0 mm
06:20 PM 65.7°F18.7°C 61.1°F16.2°C 85% 2.2 mph N3.5 kmh N 8.3 mph13.4 kmh 30.29 in1025.7 mb 0.00 in0.0 mm 0.00 in0.0 mm 0.00 in0.0 mm
06:30 PM 65.1°F18.4°C 60.2°F15.7°C 84% 1.6 mph SE2.6 kmh SE 7.6 mph12.2 kmh 30.29 in1025.7 mb 0.00 in0.0 mm 0.00 in0.0 mm 0.00 in0.0 mm
06:40 PM 64.9°F18.3°C 60.3°F15.7°C 85% 3.8 mph WNW6.1 kmh WNW 6.9 mph11.1 kmh 30.30 in1026.1 mb 0.00 in0.0 mm 0.00 in0.0 mm 0.00 in0.0 mm
06:50 PM 64.6°F18.1°C 60.3°F15.7°C 86% 4.5 mph SE7.2 kmh SE 7.6 mph12.2 kmh 30.30 in1026.1 mb 0.00 in0.0 mm 0.00 in0.0 mm 0.00 in0.0 mm
07:00 PM 64.4°F18.0°C 60.1°F15.6°C 86% 0.7 mph E1.1 kmh E 7.6 mph12.2 kmh 30.30 in1026.1 mb 0.00 in0.0 mm 0.00 in0.0 mm 0.00 in0.0 mm
07:10 PM 64.2°F17.9°C 59.6°F15.3°C 85% 3.8 mph ESE6.1 kmh ESE 7.6 mph12.2 kmh 30.30 in1026.1 mb 0.00 in0.0 mm 0.00 in0.0 mm 0.00 in0.0 mm
07:20 PM 64.0°F17.8°C 59.1°F15.1°C 84% 4.5 mph WNW7.2 kmh WNW 7.6 mph12.2 kmh 30.30 in1026.1 mb 0.00 in0.0 mm 0.00 in0.0 mm 0.00 in0.0 mm
07:30 PM 63.9°F17.7°C 59.3°F15.2°C 85% 4.5 mph S7.2 kmh S 7.6 mph12.2 kmh 30.30 in1026.1 mb 0.00 in0.0 mm 0.00 in0.0 mm 0.00 in0.0 mm
07:40 PM 63.9°F17.7°C 59.3°F15.2°C 85% 2.2 mph S3.5 kmh S 6.0 mph9.7 kmh 30.29 in1025.7 mb 0.00 in0.0 mm 0.00 in0.0 mm 0.00 in0.0 mm
07:50 PM 63.7°F17.6°C 59.1°F15.1°C 85% 3.1 mph ESE5.0 kmh ESE 5.4 mph8.7 kmh 30.30 in1026.1 mb 0.00 in0.0 mm 0.00 in0.0 mm 0.00 in0.0 mm
08:00 PM 63.7°F17.6°C 58.8°F14.9°C 84% Calm Calm 6.0 mph9.7 kmh 30.30 in1026.1 mb 0.00 in0.0 mm 0.00 in0.0 mm 0.00 in0.0 mm
08:10 PM 63.7°F17.6°C 59.1°F15.1°C 85% 3.1 mph SE5.0 kmh SE 4.5 mph7.2 kmh 30.31 in1026.4 mb 0.00 in0.0 mm 0.00 in0.0 mm 0.00 in0.0 mm
08:20 PM 63.7°F17.6°C 58.8°F14.9°C 84% 4.5 mph WSW7.2 kmh WSW 6.9 mph11.1 kmh 30.31 in1026.4 mb 0.00 in0.0 mm 0.00 in0.0 mm 0.00 in0.0 mm
08:30 PM 63.7°F17.6°C 58.8°F14.9°C 84% 3.1 mph N5.0 kmh N 6.0 mph9.7 kmh 30.32 in1026.8 mb 0.00 in0.0 mm 0.00 in0.0 mm 0.00 in0.0 mm
08:40 PM 63.7°F17.6°C 58.8°F14.9°C 84% Calm Calm 5.4 mph8.7 kmh 30.32 in1026.8 mb 0.00 in0.0 mm 0.00 in0.0 mm 0.00 in0.0 mm
08:50 PM 63.7°F17.6°C 58.8°F14.9°C 84% Calm Calm -- 30.32 in1026.8 mb 0.00 in0.0 mm 0.00 in0.0 mm 0.00 in0.0 mm
09:00 PM 63.7°F17.6°C 58.8°F14.9°C 84% Calm Calm -- 30.32 in1026.8 mb 0.00 in0.0 mm 0.00 in0.0 mm 0.00 in0.0 mm
09:10 PM 63.7°F17.6°C 58.8°F14.9°C 84% Calm Calm -- 30.32 in1026.8 mb 0.00 in0.0 mm 0.00 in0.0 mm 0.00 in0.0 mm
09:20 PM 63.7°F17.6°C 59.1°F15.1°C 85% Calm Calm -- 30.33 in1027.1 mb 0.00 in0.0 mm 0.00 in0.0 mm 0.00 in0.0 mm
09:30 PM 63.5°F17.5°C 58.6°F14.8°C 84% Calm Calm 2.2 mph3.5 kmh 30.33 in1027.1 mb 0.00 in0.0 mm 0.00 in0.0 mm 0.00 in0.0 mm
09:40 PM 63.5°F17.5°C 58.6°F14.8°C 84% Calm Calm 2.2 mph3.5 kmh 30.32 in1026.8 mb 0.00 in0.0 mm 0.00 in0.0 mm 0.00 in0.0 mm
09:50 PM 63.5°F17.5°C 58.6°F14.8°C 84% Calm Calm -- 30.33 in1027.1 mb 0.00 in0.0 mm 0.00 in0.0 mm 0.00 in0.0 mm
10:00 PM 63.3°F17.4°C 58.4°F14.7°C 84% Calm Calm -- 30.33 in1027.1 mb 0.00 in0.0 mm 0.00 in0.0 mm 0.00 in0.0 mm
10:10 PM 63.3°F17.4°C 58.4°F14.7°C 84% Calm Calm -- 30.33 in1027.1 mb 0.00 in0.0 mm 0.00 in0.0 mm 0.00 in0.0 mm
10:20 PM 63.3°F17.4°C 58.4°F14.7°C 84% Calm Calm -- 30.32 in1026.8 mb 0.00 in0.0 mm 0.00 in0.0 mm 0.00 in0.0 mm
10:30 PM 63.3°F17.4°C 58.8°F14.9°C 85% Calm Calm -- 30.32 in1026.8 mb 0.00 in0.0 mm 0.00 in0.0 mm 0.00 in0.0 mm
10:40 PM 63.3°F17.4°C 58.4°F14.7°C 84% Calm Calm -- 30.32 in1026.8 mb 0.00 in0.0 mm 0.00 in0.0 mm 0.00 in0.0 mm
10:50 PM 63.1°F17.3°C 58.2°F14.6°C 84% Calm Calm -- 30.32 in1026.8 mb 0.00 in0.0 mm 0.00 in0.0 mm 0.00 in0.0 mm
11:00 PM 63.1°F17.3°C 58.6°F14.8°C 85% Calm Calm -- 30.32 in1026.8 mb 0.00 in0.0 mm 0.00 in0.0 mm 0.00 in0.0 mm
11:10 PM 63.3°F17.4°C 58.8°F14.9°C 85% Calm Calm 3.1 mph5.0 kmh 30.31 in1026.4 mb 0.00 in0.0 mm 0.00 in0.0 mm 0.00 in0.0 mm
11:20 PM 63.1°F17.3°C 59.2°F15.1°C 87% 0.7 mph N1.1 kmh N 3.1 mph5.0 kmh 30.31 in1026.4 mb 0.00 in0.0 mm 0.00 in0.0 mm 0.00 in0.0 mm
11:30 PM 63.1°F17.3°C 59.5°F15.3°C 88% 0.7 mph N1.1 kmh N 3.8 mph6.1 kmh 30.31 in1026.4 mb 0.00 in0.0 mm 0.00 in0.0 mm 0.00 in0.0 mm
11:40 PM 63.0°F17.2°C 59.7°F15.4°C 89% Calm Calm 3.8 mph6.1 kmh 30.31 in1026.4 mb 0.00 in0.0 mm 0.00 in0.0 mm 0.00 in0.0 mm
11:50 PM 62.8°F17.1°C 59.5°F15.3°C 89% Calm Calm -- 30.31 in1026.4 mb 0.00 in0.0 mm 0.00 in0.0 mm 0.00 in0.0 mm